KLEX/LEX METAR and TAF weather

Enter ICAO airport designator
Station Type Date Time Source
KLEX METAR 2019/04/19 09:54 UTC NOAA

KLEX 190954Z 32004KT 7SM -RA FEW008 BKN022 OVC029 15/13 A2951 RMK AO2 SLP983 P0008 T01500128


Station Type Date Time Source
KLEX Decoded METAR 2019/04/19 09:54 UTC NOAA

LEXINGTON BLUE GRASS AIRPORT, KY, United States (KLEX) 38-02N 084-36W 300M
Apr 19, 2019 - 05:54 AM EDT / 2019.04.19 0954 UTC
Wind: from the NW (320 degrees) at 5 MPH (4 KT):0
Visibility: 7 mile(s):0
Sky conditions: overcast
Weather: light rain
Precipitation last hour: 0.08 inches
Temperature: 59.0 F (15.0 C)
Dew Point: 55.0 F (12.8 C)
Relative Humidity: 86%
Pressure (altimeter): 29.51 in. Hg (999 hPa)
ob: KLEX 190954Z 32004KT 7SM -RA FEW008 BKN022 OVC029 15/13 A2951 RMK AO2 SLP983 P0008 T01500128
cycle: 10

Station Type Date Time Source
KLEX TAF 2019/04/19 06:40 UTC NOAA

TAF KLEX 190537Z 1906/2006 21006KT 6SM SHRA BR OVC060
TEMPO 1909/1911 4SM SHRA BR OVC015
FM191100 32012KT P6SM VCSH OVC009
FM191500 35010KT P6SM OVC009 PROB30 1915/1921 4SM -SHRA BR OVC004
FM192100 01014G20KT P6SM OVC007

Example: see airport list